Time;durP1;ratioP1;P1;durP2;ratioP2;P2;SDS_P1;SDS_P2;PMS_P1;PMS_P2;Temp;Humidity;BMP_temperature;BMP_pressure;BME280_temperature;BME280_humidity;BME280_pressure;Samples;Min_cycle;Max_cycle;Signal;HPM_P1;HPM_P2
2021/08/13 00:02:07;;;;;;;2.15;1.10;;;17.30;99.90;;;;;;5114725;28;20044;-93
2021/08/13 00:04:34;;;;;;;2.55;1.02;;;17.30;99.90;;;;;;5113825;28;20040;-92
2021/08/13 00:07:01;;;;;;;1.65;0.85;;;17.30;99.90;;;;;;5113335;28;20123;-91
2021/08/13 00:09:28;;;;;;;2.08;0.93;;;17.20;99.90;;;;;;5113607;28;20507;-91
2021/08/13 00:12:01;;;;;;;1.92;0.90;;;17.20;99.90;;;;;;5113799;28;20053;-91
2021/08/13 00:14:28;;;;;;;1.60;0.90;;;17.20;99.90;;;;;;5097017;28;20438;-92
2021/08/13 00:16:55;;;;;;;2.25;1.20;;;17.10;99.90;;;;;;5113673;28;20097;-91
2021/08/13 00:19:22;;;;;;;2.00;1.10;;;17.00;99.90;;;;;;5097186;28;20044;-91
2021/08/13 00:21:50;;;;;;;2.20;1.10;;;17.00;99.90;;;;;;5097257;28;20040;-92
2021/08/13 00:24:17;;;;;;;1.48;0.88;;;17.00;99.90;;;;;;5113882;28;20051;-92
2021/08/13 00:26:44;;;;;;;2.47;1.20;;;16.90;99.90;;;;;;5112880;28;20040;-91
2021/08/13 00:29:11;;;;;;;3.17;1.20;;;16.90;99.90;;;;;;5112822;28;20128;-91
2021/08/13 00:31:38;;;;;;;1.95;1.05;;;16.90;99.90;;;;;;5096728;28;20076;-91
2021/08/13 00:34:05;;;;;;;0.93;0.40;;;16.90;99.90;;;;;;5113494;28;20044;-91
2021/08/13 00:36:31;;;;;;;0.20;0.20;;;16.80;99.90;;;;;;5113295;28;20100;-91
2021/08/13 00:39:02;;;;;;;0.35;0.28;;;16.80;99.90;;;;;;5113001;28;20040;-91
2021/08/13 00:41:29;;;;;;;0.20;0.13;;;16.80;99.90;;;;;;5113153;28;20040;-91
2021/08/13 00:43:56;;;;;;;0.17;0.17;;;16.80;99.90;;;;;;5113126;28;20287;-92
2021/08/13 00:46:23;;;;;;;0.30;0.30;;;16.80;99.90;;;;;;5113207;28;20082;-92
2021/08/13 00:48:51;;;;;;;0.95;0.32;;;16.70;99.90;;;;;;5112721;28;20067;-92
2021/08/13 00:51:18;;;;;;;0.20;0.10;;;16.70;99.90;;;;;;5112914;28;20055;-92
2021/08/13 00:53:45;;;;;;;0.20;0.20;;;16.70;99.90;;;;;;5112281;28;20051;-93
2021/08/13 00:56:12;;;;;;;0.35;0.28;;;16.60;99.90;;;;;;5113343;28;20044;-91
2021/08/13 00:58:39;;;;;;;0.75;0.40;;;16.60;99.90;;;;;;5112280;28;20028;-91
2021/08/13 01:01:06;;;;;;;0.63;0.30;;;16.60;99.90;;;;;;5113152;28;20086;-91
2021/08/13 01:03:33;;;;;;;1.25;0.52;;;16.60;99.90;;;;;;5096382;28;20066;-91
2021/08/13 01:06:00;;;;;;;0.75;0.30;;;16.50;99.90;;;;;;5095513;28;20046;-91
2021/08/13 01:08:27;;;;;;;0.28;0.20;;;16.50;99.90;;;;;;5095841;28;20076;-90
2021/08/13 01:11:16;;;;;;;0.38;0.30;;;16.40;99.90;;;;;;5128789;28;20423;-90
2021/08/13 01:14:05;;;;;;;0.10;0.10;;;16.50;99.90;;;;;;5129188;28;20392;-90
2021/08/13 01:16:34;;;;;;;0.47;0.40;;;16.40;99.90;;;;;;5112980;28;20473;-91
2021/08/13 01:19:07;;;;;;;0.25;0.22;;;16.50;99.90;;;;;;5095914;28;20101;-91
2021/08/13 01:21:43;;;;;;;0.13;0.10;;;16.40;99.90;;;;;;5113288;28;20079;-90
2021/08/13 01:24:22;;;;;;;0.13;0.10;;;16.40;99.90;;;;;;5113243;28;20044;-91
2021/08/13 01:27:04;;;;;;;0.20;0.08;;;16.40;99.90;;;;;;5111995;28;20405;-90
2021/08/13 01:29:52;;;;;;;0.10;0.10;;;16.40;99.90;;;;;;5112391;28;20055;-90
2021/08/13 01:32:32;;;;;;;0.00;0.00;;;16.40;99.90;;;;;;5112376;28;20040;-91
2021/08/13 01:35:12;;;;;;;0.13;0.10;;;16.30;99.90;;;;;;5112385;28;20055;-90
2021/08/13 01:38:04;;;;;;;0.00;0.00;;;16.20;99.90;;;;;;5112662;28;20060;-90
2021/08/13 01:40:32;;;;;;;0.32;0.20;;;16.20;99.90;;;;;;5129179;28;20160;-91
2021/08/13 01:43:00;;;;;;;0.35;0.22;;;16.20;99.90;;;;;;5111760;28;20476;-90
2021/08/13 01:45:31;;;;;;;0.40;0.40;;;16.20;99.90;;;;;;5112085;28;20136;-90
2021/08/13 01:48:02;;;;;;;0.22;0.17;;;16.20;99.90;;;;;;5112050;28;20065;-91
2021/08/13 01:50:30;;;;;;;0.17;0.10;;;16.20;99.90;;;;;;5112333;28;20110;-90
2021/08/13 01:52:59;;;;;;;0.20;0.20;;;16.20;99.90;;;;;;5112249;28;20067;-91
2021/08/13 01:55:27;;;;;;;0.60;0.38;;;16.10;99.90;;;;;;5128730;28;20036;-90
2021/08/13 01:57:54;;;;;;;0.35;0.30;;;16.10;99.90;;;;;;5110884;28;20040;-91
2021/08/13 02:00:23;;;;;;;0.10;0.10;;;16.10;99.90;;;;;;5111671;28;20047;-91
2021/08/13 02:02:51;;;;;;;0.60;0.20;;;16.00;99.90;;;;;;5111977;28;20376;-91
2021/08/13 02:05:21;;;;;;;0.50;0.30;;;16.10;99.90;;;;;;5112091;28;20052;-91
2021/08/13 02:07:50;;;;;;;0.77;0.30;;;16.00;99.90;;;;;;5111538;28;20515;-90
2021/08/13 02:10:18;;;;;;;0.57;0.30;;;16.00;99.90;;;;;;5129056;28;20056;-90
2021/08/13 02:12:45;;;;;;;0.38;0.22;;;16.00;99.90;;;;;;5128815;28;20044;-90
2021/08/13 02:15:12;;;;;;;0.30;0.30;;;16.00;99.90;;;;;;5094521;28;20079;-90
2021/08/13 02:17:59;;;;;;;0.10;0.10;;;16.00;99.90;;;;;;5095253;28;20044;-91
2021/08/13 02:20:29;;;;;;;0.38;0.28;;;15.90;99.90;;;;;;5111851;28;20122;-91
2021/08/13 02:22:57;;;;;;;0.20;0.20;;;15.90;99.90;;;;;;5128443;28;20032;-91
2021/08/13 02:25:24;;;;;;;1.15;0.30;;;15.90;99.90;;;;;;5128532;28;20497;-91
2021/08/13 02:27:51;;;;;;;0.50;0.30;;;15.90;99.90;;;;;;5111743;28;20138;-90
2021/08/13 02:30:18;;;;;;;0.85;0.43;;;15.90;99.90;;;;;;5095299;28;20147;-90
2021/08/13 02:32:47;;;;;;;0.60;0.40;;;15.80;99.90;;;;;;5115870;28;20051;-91
2021/08/13 02:35:15;;;;;;;0.47;0.30;;;15.90;99.90;;;;;;5108664;28;20036;-90
2021/08/13 02:37:54;;;;;;;1.45;0.47;;;15.90;99.90;;;;;;5143362;28;20739;-90
2021/08/13 02:40:34;;;;;;;0.60;0.30;;;15.80;99.90;;;;;;5116328;28;20044;-90
2021/08/13 02:43:09;;;;;;;0.98;0.38;;;15.80;99.90;;;;;;5115871;28;20443;-90
2021/08/13 02:45:40;;;;;;;1.00;0.35;;;15.80;99.90;;;;;;5115344;28;20054;-90
2021/08/13 02:48:08;;;;;;;0.13;0.10;;;15.80;99.90;;;;;;5115471;28;20044;-90
2021/08/13 02:50:39;;;;;;;0.47;0.30;;;15.80;99.90;;;;;;5115576;28;20039;-90
2021/08/13 02:53:10;;;;;;;0.52;0.35;;;15.80;99.90;;;;;;5115196;28;20052;-90
2021/08/13 02:56:03;;;;;;;0.88;0.40;;;15.80;99.90;;;;;;5131895;28;20032;-90
2021/08/13 02:58:38;;;;;;;0.52;0.28;;;15.80;99.90;;;;;;5132618;28;20483;-90
2021/08/13 03:01:08;;;;;;;0.30;0.22;;;15.70;99.90;;;;;;5131634;28;20396;-90
2021/08/13 03:03:35;;;;;;;0.30;0.20;;;15.70;99.90;;;;;;5132129;28;20055;-90
2021/08/13 03:06:06;;;;;;;0.40;0.30;;;15.70;99.90;;;;;;5115103;28;20104;-91
2021/08/13 03:08:34;;;;;;;0.08;0.05;;;15.70;99.90;;;;;;5131604;28;20040;-92
2021/08/13 03:11:04;;;;;;;0.10;0.10;;;15.70;99.90;;;;;;5114297;28;20078;-91
2021/08/13 03:13:32;;;;;;;0.32;0.10;;;15.70;99.90;;;;;;5114514;28;20044;-91
2021/08/13 03:16:01;;;;;;;0.10;0.10;;;15.70;99.90;;;;;;5114761;28;20130;-91
2021/08/13 03:18:29;;;;;;;0.30;0.10;;;15.70;99.90;;;;;;5082170;28;20051;-91
2021/08/13 03:20:57;;;;;;;0.10;0.10;;;15.60;99.90;;;;;;5115177;28;20040;-90
2021/08/13 03:23:26;;;;;;;0.17;0.17;;;15.70;99.90;;;;;;5114771;28;20047;-91
2021/08/13 03:25:53;;;;;;;0.10;0.10;;;15.60;99.90;;;;;;5097952;28;20044;-90
2021/08/13 03:28:20;;;;;;;0.25;0.20;;;15.60;99.90;;;;;;5097975;28;20470;-90
2021/08/13 03:30:47;;;;;;;0.10;0.10;;;15.60;99.90;;;;;;5114839;28;20465;-91
2021/08/13 03:33:16;;;;;;;0.10;0.10;;;15.60;99.90;;;;;;5114535;28;20056;-91
2021/08/13 03:35:44;;;;;;;0.28;0.28;;;15.60;99.90;;;;;;5114156;28;20044;-90
2021/08/13 03:38:13;;;;;;;0.10;0.10;;;15.60;99.90;;;;;;5114144;28;20537;-89
2021/08/13 03:40:40;;;;;;;0.22;0.20;;;15.50;99.90;;;;;;5114835;28;20059;-90
2021/08/13 03:43:07;;;;;;;0.25;0.17;;;15.50;99.90;;;;;;5097477;28;20036;-90
2021/08/13 03:45:34;;;;;;;0.03;0.03;;;15.50;99.90;;;;;;5114480;28;20125;-90
2021/08/13 03:48:01;;;;;;;0.10;0.10;;;15.50;99.90;;;;;;5114007;28;20054;-91
2021/08/13 03:50:28;;;;;;;0.38;0.10;;;15.60;99.90;;;;;;5114270;28;20483;-90
2021/08/13 03:52:55;;;;;;;0.13;0.13;;;15.50;99.90;;;;;;5114733;28;20048;-90
2021/08/13 03:55:22;;;;;;;0.70;0.10;;;15.50;99.90;;;;;;5112957;28;20040;-91
2021/08/13 03:57:49;;;;;;;0.30;0.30;;;15.50;99.90;;;;;;5114124;28;20138;-90
2021/08/13 04:00:16;;;;;;;0.15;0.13;;;15.50;99.90;;;;;;5113866;28;20048;-90
2021/08/13 04:02:44;;;;;;;0.00;0.00;;;15.50;99.90;;;;;;5096966;28;20044;-90
2021/08/13 04:05:11;;;;;;;0.20;0.10;;;15.50;99.90;;;;;;5096917;28;20076;-90
2021/08/13 04:07:43;;;;;;;0.08;0.08;;;15.40;99.90;;;;;;5130216;28;20087;-90
2021/08/13 04:10:11;;;;;;;0.10;0.10;;;15.40;99.90;;;;;;5130213;28;20039;-90
2021/08/13 04:12:38;;;;;;;0.30;0.10;;;15.40;99.90;;;;;;5113923;28;20056;-90
2021/08/13 04:15:06;;;;;;;0.35;0.28;;;15.40;99.90;;;;;;5096449;28;20048;-90
2021/08/13 04:17:33;;;;;;;0.32;0.28;;;15.40;99.90;;;;;;5113745;28;20473;-89
2021/08/13 04:20:01;;;;;;;0.15;0.00;;;15.40;99.90;;;;;;5114084;28;20048;-90
2021/08/13 04:22:28;;;;;;;0.28;0.20;;;15.40;99.90;;;;;;5113359;28;20113;-90
2021/08/13 04:24:55;;;;;;;0.10;0.10;;;15.30;99.90;;;;;;5130273;28;20560;-90
2021/08/13 04:27:22;;;;;;;0.00;0.00;;;15.20;99.90;;;;;;5113557;28;20047;-90
2021/08/13 04:29:49;;;;;;;0.10;0.10;;;15.40;99.90;;;;;;5113615;28;20134;-90
2021/08/13 04:32:16;;;;;;;0.10;0.10;;;15.40;99.90;;;;;;5113020;28;20044;-89
2021/08/13 04:34:43;;;;;;;0.32;0.25;;;15.30;99.90;;;;;;5113590;28;20476;-89
2021/08/13 04:37:10;;;;;;;0.25;0.15;;;15.40;99.90;;;;;;5112852;28;20118;-90
2021/08/13 04:39:39;;;;;;;0.00;0.00;;;15.40;99.90;;;;;;5096579;28;20082;-90
2021/08/13 04:42:06;;;;;;;0.00;0.00;;;15.40;99.90;;;;;;5113254;28;20067;-90
2021/08/13 04:44:35;;;;;;;0.10;0.10;;;15.40;99.90;;;;;;5130123;28;20408;-90
2021/08/13 04:47:02;;;;;;;0.52;0.40;;;15.40;99.90;;;;;;5112992;28;20142;-90
2021/08/13 04:49:30;;;;;;;0.25;0.25;;;15.40;99.90;;;;;;5112810;28;20116;-90
2021/08/13 04:51:57;;;;;;;0.25;0.10;;;15.40;99.90;;;;;;5113007;28;20055;-90
2021/08/13 04:54:26;;;;;;;0.10;0.10;;;15.40;99.90;;;;;;5112247;28;20048;-89
2021/08/13 04:56:53;;;;;;;0.00;0.00;;;15.40;99.90;;;;;;5113755;28;20512;-89
2021/08/13 04:59:20;;;;;;;0.20;0.10;;;15.40;99.90;;;;;;5113324;28;20117;-89
2021/08/13 05:01:47;;;;;;;0.45;0.40;;;15.40;99.90;;;;;;5113416;28;20040;-90
2021/08/13 05:04:17;;;;;;;0.17;0.10;;;15.50;99.90;;;;;;5112886;28;20048;-90
2021/08/13 05:06:44;;;;;;;0.20;0.20;;;15.50;99.90;;;;;;5113579;28;20136;-90
2021/08/13 05:09:11;;;;;;;0.00;0.00;;;15.50;99.90;;;;;;5113068;28;20051;-90
2021/08/13 05:11:38;;;;;;;0.40;0.28;;;15.50;99.90;;;;;;5112716;28;20039;-89
2021/08/13 05:14:05;;;;;;;0.10;0.10;;;15.60;99.90;;;;;;5113034;28;20465;-90
2021/08/13 05:16:32;;;;;;;0.00;0.00;;;15.60;99.90;;;;;;5112190;28;20048;-90
2021/08/13 05:18:59;;;;;;;0.30;0.30;;;15.60;99.90;;;;;;5095833;28;20044;-90
2021/08/13 05:21:28;;;;;;;0.10;0.10;;;15.70;99.90;;;;;;5095416;28;20097;-91
2021/08/13 05:23:54;;;;;;;0.68;0.15;;;15.70;99.90;;;;;;5112344;28;20040;-90
2021/08/13 05:26:22;;;;;;;0.65;0.30;;;15.70;99.90;;;;;;5128683;28;20476;-90
2021/08/13 05:29:09;;;;;;;0.03;0.03;;;15.80;99.90;;;;;;5101634;28;20048;-90
2021/08/13 05:31:48;;;;;;;0.52;0.30;;;15.90;99.90;;;;;;5117269;28;20138;-90
2021/08/13 05:34:14;;;;;;;0.17;0.15;;;15.90;99.90;;;;;;5149374;28;20067;-90
2021/08/13 05:36:44;;;;;;;0.10;0.10;;;16.00;99.90;;;;;;5149592;28;20039;-89
2021/08/13 05:39:11;;;;;;;0.10;0.10;;;16.10;99.90;;;;;;5132460;28;20048;-90
2021/08/13 05:41:38;;;;;;;0.30;0.20;;;16.20;99.90;;;;;;5111676;28;20135;-90
2021/08/13 05:44:05;;;;;;;0.20;0.10;;;16.20;99.90;;;;;;5109292;28;20047;-90
2021/08/13 05:46:34;;;;;;;0.10;0.10;;;16.30;99.90;;;;;;5113633;28;20074;-90
2021/08/13 05:49:01;;;;;;;0.63;0.35;;;16.40;99.90;;;;;;5126431;28;20039;-90
2021/08/13 05:51:28;;;;;;;0.00;0.00;;;16.40;99.90;;;;;;5119803;28;21524;-90
2021/08/13 05:53:55;;;;;;;0.45;0.30;;;16.50;99.90;;;;;;5118976;28;20047;-90
2021/08/13 05:56:22;;;;;;;0.10;0.10;;;16.50;99.90;;;;;;5129041;28;20403;-90
2021/08/13 05:58:49;;;;;;;0.28;0.28;;;16.50;99.90;;;;;;5123215;28;20052;-91
2021/08/13 06:01:15;;;;;;;0.05;0.03;;;16.60;99.90;;;;;;5112047;28;20066;-91
2021/08/13 06:03:43;;;;;;;0.05;0.05;;;16.60;99.90;;;;;;5095065;28;20044;-93
2021/08/13 06:06:09;;;;;;;0.10;0.10;;;16.60;99.90;;;;;;5095478;28;20043;-92
2021/08/13 06:08:36;;;;;;;0.25;0.25;;;16.60;99.90;;;;;;5111506;28;20326;-94
2021/08/13 06:11:03;;;;;;;0.10;0.10;;;16.70;99.90;;;;;;5127807;28;20048;-90
2021/08/13 06:13:30;;;;;;;0.20;0.20;;;16.70;99.90;;;;;;5098007;28;20046;-91
2021/08/13 06:15:57;;;;;;;0.10;0.10;;;16.80;99.90;;;;;;5121012;28;20055;-88
2021/08/13 06:18:24;;;;;;;0.35;0.30;;;16.90;99.90;;;;;;5123971;28;20048;-93
2021/08/13 06:20:51;;;;;;;0.60;0.15;;;16.90;99.90;;;;;;5115425;28;20073;-89
2021/08/13 06:23:19;;;;;;;0.80;0.30;;;17.10;99.90;;;;;;5128971;28;20046;-91
2021/08/13 06:25:46;;;;;;;0.22;0.20;;;17.20;99.90;;;;;;5130556;28;20494;-90
2021/08/13 06:28:13;;;;;;;0.55;0.32;;;17.30;99.90;;;;;;5111566;28;20043;-90
2021/08/13 06:30:40;;;;;;;0.00;0.00;;;17.40;99.90;;;;;;5111418;28;20540;-91
2021/08/13 06:33:07;;;;;;;0.50;0.32;;;17.60;99.90;;;;;;5128670;28;20135;-90
2021/08/13 06:35:34;;;;;;;0.10;0.10;;;17.70;99.90;;;;;;5110969;28;20048;-90
2021/08/13 06:38:00;;;;;;;0.28;0.10;;;17.80;99.90;;;;;;5120130;28;20111;-90
2021/08/13 06:40:32;;;;;;;0.17;0.13;;;17.90;99.90;;;;;;5094569;28;20071;-90
2021/08/13 06:43:02;;;;;;;0.80;0.43;;;17.90;99.90;;;;;;5112060;28;20051;-93
2021/08/13 06:45:34;;;;;;;0.47;0.25;;;18.00;99.90;;;;;;5095208;28;20416;-89
2021/08/13 06:48:00;;;;;;;0.47;0.30;;;18.10;99.90;;;;;;5127706;28;20542;-87
2021/08/13 06:50:27;;;;;;;0.55;0.35;;;18.10;99.90;;;;;;5110587;28;20036;-88
2021/08/13 06:53:00;;;;;;;1.13;0.40;;;18.30;99.90;;;;;;5093885;28;20040;-88
2021/08/13 06:55:27;;;;;;;0.55;0.35;;;18.30;99.90;;;;;;5127543;28;20173;-88
2021/08/13 06:57:54;;;;;;;0.70;0.28;;;18.40;99.90;;;;;;5110903;28;20074;-88
2021/08/13 07:00:21;;;;;;;0.55;0.30;;;18.50;99.90;;;;;;5111392;28;20028;-93
2021/08/13 07:02:49;;;;;;;0.30;0.15;;;18.60;99.90;;;;;;5129644;28;20040;-91
2021/08/13 07:05:16;;;;;;;0.47;0.20;;;18.70;99.90;;;;;;5129306;28;20047;-91
2021/08/13 07:07:43;;;;;;;0.15;0.15;;;18.70;99.90;;;;;;5094880;28;20139;-90
2021/08/13 07:10:11;;;;;;;0.50;0.32;;;18.80;99.90;;;;;;5111620;28;20115;-95
2021/08/13 07:12:39;;;;;;;0.25;0.20;;;18.90;99.90;;;;;;5128979;28;20048;-91
2021/08/13 07:15:10;;;;;;;1.00;0.52;;;18.90;99.90;;;;;;5130115;28;20138;-95
2021/08/13 07:17:38;;;;;;;0.22;0.22;;;19.00;99.90;;;;;;5131718;28;20101;-93
2021/08/13 07:20:06;;;;;;;0.10;0.10;;;19.00;99.90;;;;;;5132154;28;20040;-89
2021/08/13 07:22:33;;;;;;;0.15;0.15;;;19.10;99.90;;;;;;5117851;28;20050;-94
2021/08/13 07:25:07;;;;;;;0.47;0.22;;;19.20;99.90;;;;;;5098955;28;20048;-91
2021/08/13 07:27:41;;;;;;;0.63;0.30;;;19.30;99.90;;;;;;5115624;28;20048;-96
2021/08/13 07:30:11;;;;;;;0.30;0.17;;;19.40;99.90;;;;;;5118472;28;20464;-96
2021/08/13 07:32:38;;;;;;;0.40;0.25;;;19.30;99.90;;;;;;5115244;28;20051;-96
2021/08/13 07:35:06;;;;;;;0.20;0.20;;;19.50;99.90;;;;;;5098423;28;20040;-94
2021/08/13 07:37:33;;;;;;;0.95;0.55;;;19.50;99.90;;;;;;5113541;28;20032;-95
2021/08/13 07:40:00;;;;;;;0.30;0.20;;;19.60;99.90;;;;;;5135624;28;20042;-96
2021/08/13 07:42:27;;;;;;;0.10;0.10;;;19.70;99.90;;;;;;5135519;28;20047;-96
2021/08/13 07:44:54;;;;;;;0.45;0.30;;;19.70;99.90;;;;;;5151972;28;20118;-96
2021/08/13 07:47:21;;;;;;;0.20;0.20;;;19.90;99.90;;;;;;5135309;28;20039;-95
2021/08/13 07:49:48;;;;;;;0.38;0.20;;;20.00;99.90;;;;;;5135039;28;20452;-94
2021/08/13 07:52:15;;;;;;;0.30;0.20;;;20.00;99.90;;;;;;5135114;28;20134;-94
2021/08/13 07:54:42;;;;;;;0.30;0.20;;;20.10;99.90;;;;;;5134389;28;20050;-95
2021/08/13 07:57:09;;;;;;;0.28;0.28;;;20.20;99.90;;;;;;5118195;28;20403;-94
2021/08/13 07:59:36;;;;;;;0.20;0.20;;;20.20;99.90;;;;;;5117287;28;20031;-94
2021/08/13 08:02:06;;;;;;;0.32;0.25;;;20.20;99.90;;;;;;5152301;28;20399;-93
2021/08/13 08:04:37;;;;;;;0.95;0.47;;;20.30;99.90;;;;;;5108368;28;20039;-93
2021/08/13 08:07:04;;;;;;;0.70;0.40;;;20.40;99.90;;;;;;5114303;28;20109;-96
2021/08/13 08:09:34;;;;;;;0.60;0.25;;;20.50;99.90;;;;;;5115125;28;20147;-95
2021/08/13 08:12:01;;;;;;;0.32;0.30;;;20.60;99.90;;;;;;5097517;28;20055;-94
2021/08/13 08:14:56;;;;;;;1.15;0.50;;;20.70;99.90;;;;;;5114787;28;20056;-94
2021/08/13 08:17:46;;;;;;;0.10;0.10;;;20.80;99.90;;;;;;5144615;28;20131;-91
2021/08/13 08:20:13;;;;;;;0.45;0.28;;;20.70;99.90;;;;;;5114250;28;20052;-95
2021/08/13 08:57:45;;;;;;;1.25;0.60;;;21.30;99.90;;;;;;5126941;28;20492;-92
2021/08/13 09:00:15;;;;;;;0.38;0.30;;;21.40;99.90;;;;;;5129340;28;20036;-86
2021/08/13 09:02:45;;;;;;;0.47;0.40;;;21.40;99.90;;;;;;5128998;28;20115;-90
2021/08/13 09:05:15;;;;;;;0.47;0.30;;;21.50;99.90;;;;;;5130391;28;20047;-92
2021/08/13 09:07:43;;;;;;;0.50;0.20;;;21.50;99.90;;;;;;5080203;28;20055;-88
2021/08/13 09:10:12;;;;;;;2.33;0.85;;;21.60;99.90;;;;;;5112481;28;20044;-90
2021/08/13 09:12:40;;;;;;;0.47;0.30;;;21.60;99.90;;;;;;5096338;28;20044;-87
2021/08/13 09:15:33;;;;;;;0.65;0.43;;;21.70;99.90;;;;;;5130211;28;20058;-93
2021/08/13 09:18:22;;;;;;;0.52;0.30;;;21.80;99.90;;;;;;5127589;28;20074;-84
2021/08/13 09:20:51;;;;;;;0.25;0.20;;;22.00;99.90;;;;;;5128159;28;20070;-88
2021/08/13 09:23:39;;;;;;;0.68;0.30;;;22.10;99.90;;;;;;5129103;28;20446;-86
2021/08/13 09:26:13;;;;;;;0.57;0.40;;;22.20;99.90;;;;;;5125950;28;20036;-85
2021/08/13 09:28:47;;;;;;;0.20;0.20;;;22.20;99.90;;;;;;5110167;28;20045;-85
2021/08/13 09:31:25;;;;;;;0.17;0.17;;;22.30;99.90;;;;;;5107267;28;20082;-84
2021/08/13 09:33:53;;;;;;;0.55;0.40;;;22.20;99.90;;;;;;5106866;28;20063;-83
2021/08/13 09:36:23;;;;;;;0.38;0.25;;;22.10;99.90;;;;;;5107082;28;20366;-85
2021/08/13 09:39:05;;;;;;;0.28;0.20;;;22.10;99.90;;;;;;5106645;28;20044;-84
2021/08/13 09:41:50;;;;;;;0.43;0.22;;;22.10;99.90;;;;;;5108771;28;20060;-84
2021/08/13 09:44:31;;;;;;;0.10;0.10;;;22.00;99.90;;;;;;5107655;28;20438;-85
2021/08/13 09:47:17;;;;;;;0.93;0.47;;;22.10;99.90;;;;;;5090820;28;20072;-84
2021/08/13 09:50:01;;;;;;;0.10;0.10;;;22.20;99.90;;;;;;5108885;28;20037;-84
2021/08/13 09:52:28;;;;;;;0.33;0.30;;;22.20;99.90;;;;;;5088439;28;20060;-84
2021/08/13 09:55:16;;;;;;;0.20;0.20;;;22.10;99.90;;;;;;5086994;28;20138;-83
2021/08/13 09:57:45;;;;;;;0.05;0.05;;;22.10;99.90;;;;;;5086629;28;20512;-84
2021/08/13 10:00:17;;;;;;;0.85;0.40;;;22.20;99.90;;;;;;5086061;28;20055;-84
2021/08/13 10:02:45;;;;;;;0.43;0.30;;;22.00;99.90;;;;;;5086656;28;20416;-84
2021/08/13 10:05:24;;;;;;;2.53;0.40;;;22.00;99.90;;;;;;5086989;28;20110;-91
2021/08/13 10:07:55;;;;;;;1.17;0.40;;;22.00;99.90;;;;;;5071610;28;20458;-83
2021/08/13 10:10:34;;;;;;;1.75;0.60;;;22.00;99.90;;;;;;5071293;28;20066;-85
2021/08/13 10:13:04;;;;;;;0.43;0.30;;;21.90;99.90;;;;;;5085845;28;20060;-83
2021/08/13 10:15:39;;;;;;;0.75;0.40;;;21.90;99.90;;;;;;5087465;28;20037;-84
2021/08/13 10:18:08;;;;;;;0.38;0.30;;;22.10;99.90;;;;;;5085761;28;20094;-84
2021/08/13 10:20:37;;;;;;;0.20;0.20;;;22.20;99.90;;;;;;5086939;28;20033;-84
2021/08/13 10:23:04;;;;;;;0.20;0.20;;;22.20;99.90;;;;;;5086926;28;20452;-82
2021/08/13 10:25:31;;;;;;;0.80;0.40;;;22.30;99.90;;;;;;5086521;28;20043;-81
2021/08/13 10:27:58;;;;;;;1.13;0.60;;;22.30;99.90;;;;;;5052974;28;20037;-82
2021/08/13 10:30:25;;;;;;;1.13;0.68;;;22.10;99.90;;;;;;5086290;28;20033;-82
2021/08/13 10:32:56;;;;;;;0.20;0.20;;;22.30;99.90;;;;;;5086457;28;20033;-81
2021/08/13 10:35:28;;;;;;;0.80;0.52;;;22.10;99.90;;;;;;5069650;28;20494;-82
2021/08/13 10:37:58;;;;;;;0.82;0.40;;;22.00;99.90;;;;;;5086481;28;20052;-85
2021/08/13 10:40:25;;;;;;;0.30;0.30;;;22.00;99.90;;;;;;5086178;28;20090;-82
2021/08/13 10:42:54;;;;;;;0.30;0.22;;;22.00;99.90;;;;;;5053175;28;20460;-82
2021/08/13 10:45:23;;;;;;;0.28;0.20;;;21.80;99.90;;;;;;5069507;28;20041;-87
2021/08/13 10:48:16;;;;;;;0.95;0.50;;;21.80;99.90;;;;;;5070791;28;20044;-86
2021/08/13 10:50:44;;;;;;;0.30;0.30;;;21.70;99.90;;;;;;5079899;28;20053;-88
2021/08/13 10:53:25;;;;;;;0.30;0.22;;;21.80;99.90;;;;;;5056614;28;20481;-88
2021/08/13 10:55:55;;;;;;;0.25;0.20;;;22.00;99.90;;;;;;5074306;28;20044;-93
2021/08/13 10:58:39;;;;;;;1.30;0.57;;;21.90;99.90;;;;;;5057604;28;20052;-89
2021/08/13 11:01:17;;;;;;;0.57;0.32;;;21.80;99.90;;;;;;5090808;28;20033;-88
2021/08/13 11:03:53;;;;;;;1.25;0.52;;;21.80;99.90;;;;;;5090649;28;20094;-88
2021/08/13 11:06:41;;;;;;;0.50;0.30;;;21.80;99.90;;;;;;5074445;28;20040;-80
2021/08/13 11:09:32;;;;;;;0.22;0.22;;;21.80;99.90;;;;;;5089200;28;20112;-78
2021/08/13 11:12:13;;;;;;;0.28;0.25;;;21.80;99.90;;;;;;5084238;28;20060;-78
2021/08/13 11:14:47;;;;;;;0.98;0.60;;;21.70;99.90;;;;;;5073439;28;20235;-78
2021/08/13 11:17:34;;;;;;;0.43;0.40;;;21.60;99.90;;;;;;5090390;28;20048;-80
2021/08/13 11:20:03;;;;;;;0.30;0.30;;;21.60;99.90;;;;;;5089914;28;20033;-81
2021/08/13 11:22:37;;;;;;;0.22;0.13;;;21.70;99.90;;;;;;5091067;28;20073;-81
2021/08/13 11:25:09;;;;;;;0.35;0.20;;;21.80;99.90;;;;;;5088987;28;20389;-80
2021/08/13 11:28:20;;;;;;;0.82;0.50;;;21.90;99.90;;;;;;5089722;28;20033;-93
2021/08/13 11:30:52;;;;;;;0.75;0.57;;;21.90;99.90;;;;;;5091318;28;20033;-92
2021/08/13 11:33:33;;;;;;;0.55;0.28;;;21.80;99.90;;;;;;5077207;28;20131;-92
2021/08/13 11:36:01;;;;;;;0.20;0.10;;;21.90;99.90;;;;;;5094541;28;20045;-90
2021/08/13 11:38:43;;;;;;;2.03;0.28;;;21.80;99.90;;;;;;5112558;28;20033;-95
2021/08/13 11:41:23;;;;;;;0.95;0.52;;;21.70;99.90;;;;;;5095250;28;20040;-94
2021/08/13 11:43:56;;;;;;;0.30;0.30;;;21.80;99.90;;;;;;5114961;28;20036;-93
2021/08/13 11:46:26;;;;;;;0.20;0.20;;;21.80;99.90;;;;;;5094223;28;20052;-90
2021/08/13 11:48:58;;;;;;;0.20;0.20;;;22.10;99.90;;;;;;5094302;28;20084;-92
2021/08/13 11:51:26;;;;;;;0.20;0.20;;;22.10;99.90;;;;;;5093124;28;20041;-92
2021/08/13 11:53:57;;;;;;;0.75;0.50;;;22.20;99.90;;;;;;5078665;28;20044;-95
2021/08/13 11:56:32;;;;;;;0.93;0.30;;;22.30;99.90;;;;;;5087432;28;20060;-89
2021/08/13 11:59:07;;;;;;;0.40;0.30;;;22.30;99.90;;;;;;5093939;28;20049;-93
2021/08/13 12:01:52;;;;;;;0.10;0.10;;;22.20;99.90;;;;;;5093674;28;20435;-90
2021/08/13 12:04:24;;;;;;;0.53;0.30;;;22.00;99.90;;;;;;5076590;28;20056;-92
2021/08/13 12:07:05;;;;;;;0.38;0.32;;;22.10;99.90;;;;;;5094041;28;20050;-94
2021/08/13 12:09:39;;;;;;;0.20;0.20;;;22.10;99.90;;;;;;5110198;28;20041;-92
2021/08/13 12:12:11;;;;;;;0.30;0.25;;;22.20;99.90;;;;;;5096889;28;20044;-86
2021/08/13 12:14:46;;;;;;;0.68;0.40;;;22.30;99.90;;;;;;5093266;28;20056;-88
2021/08/13 12:17:13;;;;;;;0.80;0.30;;;22.30;99.90;;;;;;5095094;28;20075;-88
2021/08/13 12:19:40;;;;;;;0.20;0.15;;;22.20;99.90;;;;;;5095435;28;20036;-88
2021/08/13 12:22:07;;;;;;;0.08;0.08;;;22.20;99.90;;;;;;5089627;28;20405;-87
2021/08/13 12:24:39;;;;;;;0.85;0.50;;;22.00;99.90;;;;;;5074370;28;20037;-87
2021/08/13 12:27:11;;;;;;;1.05;0.43;;;22.00;99.90;;;;;;5108716;28;20461;-88
2021/08/13 12:29:40;;;;;;;1.75;0.20;;;22.10;99.90;;;;;;5106307;28;20060;-87
2021/08/13 12:32:08;;;;;;;0.13;0.13;;;22.10;99.90;;;;;;5098504;28;20043;-87
2021/08/13 12:34:37;;;;;;;0.15;0.13;;;22.10;99.90;;;;;;5090147;28;20120;-87
2021/08/13 12:37:09;;;;;;;0.20;0.20;;;22.20;99.90;;;;;;5092464;28;20041;-86
2021/08/13 12:39:43;;;;;;;1.65;0.47;;;22.20;99.90;;;;;;5101913;28;20033;-88
2021/08/13 12:42:14;;;;;;;0.38;0.30;;;22.30;99.90;;;;;;5109132;28;20479;-86
2021/08/13 12:44:44;;;;;;;0.50;0.25;;;22.30;99.90;;;;;;5084445;28;20043;-85
2021/08/13 12:47:12;;;;;;;0.50;0.13;;;22.30;99.90;;;;;;5088047;28;20429;-84
2021/08/13 12:49:41;;;;;;;0.20;0.20;;;22.40;99.90;;;;;;5071221;28;20508;-86
2021/08/13 12:52:18;;;;;;;1.17;0.50;;;22.40;99.90;;;;;;5088217;28;20033;-85
2021/08/13 12:54:53;;;;;;;0.05;0.05;;;22.30;99.90;;;;;;5088367;28;20397;-87
2021/08/13 13:01:39;;;;;;;0.35;0.30;;;22.20;99.90;;;;;;5070992;28;19917;-95
2021/08/13 13:04:13;;;;;;;0.47;0.28;;;22.20;99.90;;;;;;5035458;28;20478;-96
2021/08/13 13:06:44;;;;;;;0.63;0.20;;;22.10;99.90;;;;;;5073063;28;20041;-90
2021/08/13 13:09:12;;;;;;;0.70;0.20;;;22.20;99.90;;;;;;5067283;28;20075;-89
2021/08/13 13:11:39;;;;;;;0.10;0.10;;;22.20;99.90;;;;;;5075360;28;20131;-87
2021/08/13 13:14:12;;;;;;;0.25;0.25;;;22.30;99.90;;;;;;5095649;28;20059;-91
2021/08/13 13:17:06;;;;;;;0.20;0.13;;;22.30;99.90;;;;;;5071317;28;20049;-87
2021/08/13 13:19:34;;;;;;;0.55;0.28;;;22.40;99.90;;;;;;5072236;28;20055;-88
2021/08/13 13:22:21;;;;;;;0.22;0.20;;;22.30;99.90;;;;;;5072457;28;20071;-88
2021/08/13 13:25:14;;;;;;;2.33;0.40;;;22.30;99.90;;;;;;5097141;28;20079;-88
2021/08/13 13:27:57;;;;;;;0.00;0.00;;;22.30;99.90;;;;;;5087695;28;20047;-92
2021/08/13 13:30:31;;;;;;;0.60;0.30;;;22.20;99.90;;;;;;5071773;28;20041;-90
2021/08/13 13:32:59;;;;;;;0.38;0.20;;;22.30;99.90;;;;;;5077273;28;20043;-90
2021/08/13 13:35:27;;;;;;;0.50;0.50;;;22.40;99.90;;;;;;5107796;28;20032;-89
2021/08/13 13:37:58;;;;;;;1.15;0.30;;;22.40;99.90;;;;;;5092566;28;20044;-92
2021/08/13 13:40:25;;;;;;;0.08;0.08;;;22.40;99.90;;;;;;5093261;28;20071;-92
2021/08/13 13:42:52;;;;;;;0.17;0.17;;;22.40;99.90;;;;;;5092292;28;20048;-90
2021/08/13 13:45:19;;;;;;;0.43;0.20;;;22.30;99.90;;;;;;5108642;28;20036;-87
2021/08/13 13:47:46;;;;;;;0.15;0.10;;;22.20;99.90;;;;;;5074890;28;20072;-87